Hit Tracker is now ESPN Home Run Tracker! Hit Tracker founder Greg Rybarczyk is now collaborating with the ESPN Stats & Information Group to continue tracking all MLB home runs, and helping baseball fans know "How Far It Really Went!™" Please credit any information on this site to ESPN Stats & Information Group. For more information and analysis on home runs, please contact founder Greg Rybarczyk. E-Mail ESPN Home Run Tracker
Main Page | Ballparks | Park Overlays | Glossary | Highlight Homers | Feedback | Bio | 3 Types of HR's | AAA Home Run Derby Last Updated: June 28, 2015, 10:15 pm PST
Welcome to the ESPN Home Run Tracker! Check out the ESPN MLB Scoreboard throughout the 2015 season! Contact us at grybar@hittrackeronline.com.
Season:
Ballpark detail for Progressive Field
Ballpark # of Home Runs HR per game Avg.
True
Distance
Avg.
Speed
Off
Bat
Avg.
Std.
Dist.
Progressive Field 70 1.84 397 103.1 392.6

Scatter Plot of Home Runs Progressive Field
 Overlay Ballpark:
Without range rings   With range rings

2015 Season Home Runs for Progressive Field
Click headers to sort
Date Video Path Hitter Hitter
Team
Pitcher Pitcher
Team
INN Ballpark Type/
Luck
True
Dist.
Speed
Off
Bat
Elev.
Angle
Horiz.
Angle
Apex Impact Due To: Std.
Dist.
#
Parks
Wind Temp. ^ Alt.
04/28/15 Video View Moss, Brandon CLE Finnegan, Brandon KC 6 Progressive ... PL 402 102.4 31.6 78.6 118 -2 -4 2 406 29
05/12/15 Video View Holliday, Matt STL Atchison, Scott CLE 8 Progressive ... PL 361 95.7 32.9 66.1 93 5 -3 1 356 17
04/28/15 Video View Gordon, Alex KC Bauer, Trevor CLE 2 Progressive ... ND 442 114.3 27.3 65.8 96 -2 -3 2 445 30
05/01/15 Video View Donaldson, Josh TOR Carrasco, Carlos CLE 1 Progressive ... JE 352 100.1 39.3 112.5 142 3 -3 4 348 10
04/12/15 Video View Martinez, J.D. DET Marcum, Shaun CLE 9 Progressive ... PL 381 100.9 36.0 105.7 132 3 -3 3 378 28
04/28/15 Video View Morales, Kendrys KC Shaw, Bryan CLE 7 Progressive ... PL 416 103.6 26.8 83.3 94 -1 -2 1 418 26
04/12/15 Video View Cabrera, Miguel DET Adams, Austin CLE 4 Progressive ... PL 383 100.2 33.3 116.2 102 8 -2 2 375 30
04/14/15 Video View Abreu, Jose CHW Hagadone, Nick CLE 5 Progressive ... PL 390 106.8 25.0 116.3 68 0 -2 1 390 30
05/14/15 Video View Brantley, Michael CLE Wacha, Michael STL 6 Progressive ... PL 366 98.4 30.0 65.4 88 -2 -1 1 368 22
05/14/15 Video View Carpenter, Matt STL Rzepczynski, Marc CLE 8 Progressive ... JE 398 99.5 27.7 83.3 91 2 -1 1 396 5
04/27/15 Video View Aviles, Mike CLE Vargas, Jason KC 5 Progressive ... JE 369 103.4 25.0 117.3 63 1 -1 1 370 23
04/29/15 Video View Kipnis, Jason CLE Ventura, Yordano KC 3 Progressive ... PL 408 102.0 29.5 80.0 103 0 -1 2 408 27
04/29/15 Video View Perez, Roberto CLE Madson, Ryan KC 8 Progressive ... PL 397 109.2 22.9 68.7 63 0 -1 0 397 29
05/01/15 Video View Hayes, Brett CLE Albers, Andrew TOR 5 Progressive ... PL 396 104.5 28.1 114.4 84 0 -1 1 396 30
04/10/15 Video View Castellanos, Nick DET McAllister, Zach CLE 5 Progressive ... PL 371 100.2 28.4 62.8 75 2 -1 1 370 27
04/11/15 Video View Gose, Anthony DET Kluber, Corey CLE 1 Progressive ... JE 389 100.4 25.4 81.1 79 -1 -1 1 391 15
04/12/15 Video View Cabrera, Miguel DET House, T.J. CLE 1 Progressive ... ND 398 104.3 30.8 117.2 97 2 -1 2 395 30
05/22/15 Video View Moss, Brandon CLE Leake, Mike CIN 3 Progressive ... PL 421 108.9 24.0 75.6 77 1 -1 1 421 29
06/05/15 Video View Jones, Adam BAL Marcum, Shaun CLE 6 Progressive ... ND 433 107.1 27.7 103.9 95 5 -1 2 428 30
06/06/15 Video View Machado, Manny BAL Salazar, Danny CLE 3 Progressive ... PL 362 98.4 31.3 61.9 92 -4 -1 1 365 25
05/08/15 Video View Brantley, Michael CLE Tonkin, Michael MIN 8 Progressive ... JE 412 110.0 19.4 84.4 57 0 0 0 412 15
04/29/15 Video View Hosmer, Eric KC Salazar, Danny CLE 6 Progressive ... JE 417 106.2 22.6 95.9 72 0 0 0 417 25
05/01/15 Video View Kipnis, Jason CLE Buehrle, Mark TOR 1 Progressive ... PL 394 109.1 22.7 67.9 61 1 0 1 393 29
05/01/15 Video View Brantley, Michael CLE Buehrle, Mark TOR 4 Progressive ... JE 395 108.4 19.6 81.6 54 0 0 0 395 6
05/02/15 Video View Martin, Russell TOR Kluber, Corey CLE 4 Progressive ... JE 393 100.7 25.7 80.6 80 -2 0 1 393 17
05/03/15 Video View Kipnis, Jason CLE Hutchison, Drew TOR 3 Progressive ... PL 404 101.7 26.4 80.2 81 2 0 1 401 25
05/03/15 Video View Travis, Devon TOR Bauer, Trevor CLE 4 Progressive ... PL 413 101.1 30.5 96.6 107 3 0 2 407 21
05/26/15 Video View Kipnis, Jason CLE Rodriguez, Wandy TEX 1 Progressive ... PL/L 401 99.3 37.5 74.1 127 35 0 3 363 2
05/26/15 Video View Raburn, Ryan CLE Rodriguez, Wandy TEX 1 Progressive ... ND 393 103.4 31.8 54.0 90 10 0 2 382 30
05/26/15 Video View Fielder, Prince TEX Salazar, Danny CLE 5 Progressive ... ND 446 111.5 24.6 76.8 82 3 0 1 443 30
05/27/15 Video View Swisher, Nick CLE Lewis, Colby TEX 2 Progressive ... JE 385 101.0 26.0 73.5 71 1 0 1 382 21
06/07/15 Video View Jones, Adam BAL Carrasco, Carlos CLE 1 Progressive ... PL 403 107.4 23.1 106.3 66 2 0 1 400 30
06/09/15 Video View Gomes, Yan CLE Elias, Roenis SEA 2 Progressive ... JE 414 102.1 27.3 94.9 94 -1 0 1 413 23
06/09/15 Video View Gomes, Yan CLE Smith, Carson SEA 9 Progressive ... JE 413 102.2 27.4 95.6 95 -2 0 1 413 23
06/11/15 Video View Urshela, Giovanny CLE Nuno, Vidal SEA 5 Progressive ... JE 383 98.1 30.1 105.1 91 2 0 1 380 24
06/17/15 Video View Russell, Addison CHC Marcum, Shaun CLE 2 Progressive ... PL 364 99.4 36.9 119.5 119 6 0 3 357 29
06/17/15 Video View Rizzo, Anthony CHC Marcum, Shaun CLE 2 Progressive ... PL 373 102.1 37.9 64.4 135 7 0 4 363 28
06/17/15 Video View Denorfia, Chris CHC Webb, Ryan CLE 3 Progressive ... JE 417 108.5 20.9 96.1 64 0 0 0 417 22
06/17/15 Video View Bryant, Kris CHC Murphy, David CLE 9 Progressive ... ND 452 108.3 25.5 91.2 98 2 0 1 448 29
06/18/15 Video View Schwarber, Kyle CHC Salazar, Danny CLE 5 Progressive ... JE 381 98.1 30.5 109.0 90 4 0 1 375 17
06/19/15 Video View Butler, Joey TB Carrasco, Carlos CLE 1 Progressive ... JE 399 106.2 21.6 80.3 62 0 0 1 399 18
06/19/15 Video View Cabrera, Asdrubal TB Carrasco, Carlos CLE 2 Progressive ... PL 368 102.1 25.6 62.1 63 1 0 1 366 25
06/19/15 Video View Souza Jr., Steven TB Atchison, Scott CLE 9 Progressive ... ND 421 109.6 30.5 116.5 108 -3 0 2 422 30
06/20/15 Video View Longoria, Evan TB Kluber, Corey CLE 1 Progressive ... JE 378 105.3 24.7 118.6 64 0 0 1 377 29
06/22/15 Video View Cespedes, Yoenis DET Bauer, Trevor CLE 3 Progressive ... JE 400 110.0 19.7 80.5 53 -2 0 0 401 18
06/24/15 Video View Lindor, Francisco CLE Farmer, Buck DET 5 Progressive ... PL 397 103.2 25.1 75.4 74 1 0 1 394 24
06/24/15 Video View Martinez, J.D. DET Carrasco, Carlos CLE 7 Progressive ... PL 370 99.1 29.2 116.5 79 1 0 1 367 27
05/09/15 Video View Hunter, Torii MIN Chen, Bruce CLE 1 Progressive ... PL 402 104.3 26.4 109.5 76 3 1 1 397 30
05/10/15 Video View Chisenhall, Lonnie CLE May, Trevor MIN 4 Progressive ... PL 374 105.5 24.1 60.8 59 0 1 1 372 27
05/03/15 Video View Martin, Russell TOR Allen, Cody CLE 9 Progressive ... ND 429 105.1 28.4 98.7 103 1 1 2 426 30
05/24/15 Video View Byrd, Marlon CIN Bauer, Trevor CLE 7 Progressive ... PL 403 101.2 28.4 102.7 89 3 1 1 398 28
05/25/15 Video View Fielder, Prince TEX Marcum, Shaun CLE 1 Progressive ... ND 432 105.1 27.3 82.5 94 2 1 1 427 29
05/25/15 Video View Beltre, Adrian TEX Marcum, Shaun CLE 1 Progressive ... JE 383 97.1 31.4 107.2 93 9 1 2 372 6
05/25/15 Video View Andrus, Elvis TEX McAllister, Zach CLE 8 Progressive ... JE 401 101.1 27.3 102.2 83 3 1 1 396 21
05/26/15 Video View Moreland, Mitch TEX Hagadone, Nick CLE 8 Progressive ... ND 428 110.5 30.6 55.8 97 8 1 2 418 30
05/27/15 Video View Santana, Carlos CLE Lewis, Colby TEX 3 Progressive ... JE/L 421 101.9 27.3 93.5 87 7 1 1 413 19
05/27/15 Video View Chisenhall, Lonnie CLE Bass, Anthony TEX 4 Progressive ... ND 416 105.7 28.8 63.0 80 14 1 2 400 30
05/27/15 Video View Chirinos, Robinson TEX Carrasco, Carlos CLE 5 Progressive ... ND 410 105.9 28.3 111.5 91 -1 1 1 409 30
05/27/15 Video View Martin, Leonys TEX Atchison, Scott CLE 9 Progressive ... ND 442 106.2 27.7 82.7 97 6 1 1 434 30
06/22/15 Video View Perez, Roberto CLE Soria, Joakim DET 9 Progressive ... PL 367 97.1 29.4 64.8 74 6 1 1 359 15
06/23/15 Video View Romine, Andrew DET Salazar, Danny CLE 3 Progressive ... PL 353 95.9 35.2 66.8 109 -4 1 2 354 18
05/09/15 Video View Dozier, Brian MIN Webb, Ryan CLE 6 Progressive ... PL 386 100.0 29.7 111.9 86 4 2 1 379 27
05/09/15 Video View Murphy, David CLE Hughes, Phil MIN 7 Progressive ... PL 420 102.3 27.8 86.1 95 1 2 1 416 22
05/25/15 Video View Perez, Roberto CLE Klein, Phil TEX 2 Progressive ... JE/L 342 89.5 37.3 61.9 93 22 2 2 316 0
06/07/15 Video View Wieters, Matt BAL McAllister, Zach CLE 9 Progressive ... PL 398 100.1 31.0 74.3 98 5 2 2 389 28
06/22/15 Video View Murphy, David CLE Chamberlain, Joba DET 8 Progressive ... PL 398 98.9 33.9 83.8 119 7 2 2 388 6
05/08/15 Video View Hunter, Torii MIN Bauer, Trevor CLE 5 Progressive ... PL 391 102.1 32.7 113.1 109 -2 3 3 388 30
05/25/15 Video View Santana, Carlos CLE Klein, Phil TEX 1 Progressive ... ND 441 110.1 32.0 66.9 117 11 3 3 426 30
06/10/15 Video View Seager, Kyle SEA Bauer, Trevor CLE 3 Progressive ... JE/L 389 96.8 31.9 80.2 100 5 3 1 379 3
05/10/15 Video View Dozier, Brian MIN Salazar, Danny CLE 1 Progressive ... JE/L 340 99.1 41.2 119.2 141 4 5 4 327 4


About HitTracker | Contact Us
© 2006-2015 HitTrackerOnline